Time;durP1;ratioP1;P1;durP2;ratioP2;P2;SDS_P1;SDS_P2;PMS_P1;PMS_P2;Temp;Humidity;BMP_temperature;BMP_pressure;BME280_temperature;BME280_humidity;BME280_pressure;Samples;Min_cycle;Max_cycle;Signal;HPM_P1;HPM_P2
2022/05/18 00:00:57;;;;;;;3.67;1.20;;;13.80;99.90;;;;;;5088495;28;20368;-86
2022/05/18 00:03:28;;;;;;;3.00;1.10;;;13.90;99.90;;;;;;5088362;28;20397;-84
2022/05/18 00:05:55;;;;;;;3.03;1.20;;;14.10;99.90;;;;;;5088345;28;20360;-84
2022/05/18 00:08:22;;;;;;;2.25;0.85;;;14.20;99.90;;;;;;5088286;28;20372;-85
2022/05/18 00:10:50;;;;;;;3.38;0.90;;;14.40;97.20;;;;;;5088552;28;20722;-86
2022/05/18 00:13:19;;;;;;;1.83;0.70;;;14.50;95.10;;;;;;5088601;28;20455;-83
2022/05/18 00:15:46;;;;;;;2.15;0.63;;;14.70;93.50;;;;;;5088256;28;20404;-85
2022/05/18 00:18:14;;;;;;;2.10;0.90;;;14.80;90.40;;;;;;5087118;28;20878;-84
2022/05/18 00:20:41;;;;;;;2.00;0.73;;;14.90;88.70;;;;;;5088244;28;20376;-85
2022/05/18 00:23:08;;;;;;;2.70;0.90;;;15.10;91.20;;;;;;5088106;28;20398;-84
2022/05/18 00:25:38;;;;;;;2.58;0.80;;;15.10;90.50;;;;;;5088214;28;20391;-85
2022/05/18 00:28:07;;;;;;;1.97;0.80;;;15.10;83.70;;;;;;5088545;28;20376;-88
2022/05/18 00:30:38;;;;;;;3.25;0.80;;;15.10;88.40;;;;;;5086879;28;20380;-86
2022/05/18 00:33:10;;;;;;;5.78;1.20;;;15.30;85.60;;;;;;5088125;28;20773;-86
2022/05/18 00:35:39;;;;;;;4.40;1.00;;;15.30;83.50;;;;;;5088174;28;20368;-85
2022/05/18 00:38:07;;;;;;;2.97;1.00;;;15.20;81.90;;;;;;5088044;28;20771;-84
2022/05/18 00:40:36;;;;;;;3.30;0.90;;;15.30;83.60;;;;;;5088320;28;20389;-85
2022/05/18 00:43:03;;;;;;;1.77;0.80;;;15.30;82.60;;;;;;5087880;28;20400;-84
2022/05/18 00:45:30;;;;;;;2.22;0.90;;;15.50;84.00;;;;;;5088034;28;20369;-84
2022/05/18 00:47:57;;;;;;;2.50;0.88;;;15.60;85.70;;;;;;5088002;28;20369;-84
2022/05/18 00:50:32;;;;;;;2.28;0.85;;;15.80;85.80;;;;;;5087812;28;20380;-85
2022/05/18 00:53:10;;;;;;;3.13;0.80;;;15.70;82.80;;;;;;5086634;28;20917;-84
2022/05/18 00:55:42;;;;;;;3.53;0.82;;;15.70;85.60;;;;;;5092137;28;20365;-84
2022/05/18 00:58:18;;;;;;;2.58;0.70;;;15.80;87.10;;;;;;5091830;28;20376;-84
2022/05/18 01:00:47;;;;;;;3.78;0.80;;;16.00;84.30;;;;;;5091661;28;20434;-84
2022/05/18 01:03:20;;;;;;;3.13;0.70;;;16.10;85.70;;;;;;5091417;28;20483;-84
2022/05/18 01:05:50;;;;;;;3.80;0.88;;;16.20;83.10;;;;;;5091370;28;20379;-83
2022/05/18 01:08:29;;;;;;;2.10;0.80;;;16.10;81.00;;;;;;5091636;28;20410;-83
2022/05/18 01:10:56;;;;;;;3.40;0.88;;;16.10;83.00;;;;;;5091277;28;20413;-83
2022/05/18 01:13:23;;;;;;;2.55;0.88;;;16.20;85.40;;;;;;5091214;28;20384;-83
2022/05/18 01:15:50;;;;;;;2.10;0.85;;;16.30;83.90;;;;;;5091179;28;20368;-84
2022/05/18 01:18:17;;;;;;;3.08;1.00;;;16.50;81.50;;;;;;5089844;28;20387;-84
2022/05/18 01:20:46;;;;;;;3.53;1.10;;;16.80;82.80;;;;;;5091059;28;20375;-83
2022/05/18 01:23:31;;;;;;;3.78;1.10;;;16.90;81.10;;;;;;5089822;28;20396;-84
2022/05/18 01:26:26;;;;;;;2.58;1.08;;;16.90;79.40;;;;;;5091085;28;20403;-84
2022/05/18 01:28:58;;;;;;;3.30;1.10;;;17.00;81.20;;;;;;5091244;28;20987;-85
2022/05/18 01:31:51;;;;;;;3.50;1.03;;;17.10;78.40;;;;;;5089370;28;20785;-84
2022/05/18 01:34:21;;;;;;;2.33;0.93;;;17.10;79.70;;;;;;5091223;28;20368;-85
2022/05/18 01:36:49;;;;;;;2.53;0.88;;;17.00;79.10;;;;;;5090963;28;20410;-85
2022/05/18 01:39:32;;;;;;;2.33;0.80;;;16.90;79.70;;;;;;5091098;28;20463;-84
2022/05/18 01:42:24;;;;;;;2.45;1.00;;;16.80;80.20;;;;;;5090748;28;20411;-85
2022/05/18 01:44:51;;;;;;;3.90;1.08;;;16.90;80.30;;;;;;5091004;28;20396;-85
2022/05/18 01:47:18;;;;;;;3.15;0.95;;;16.80;76.90;;;;;;5090822;28;20369;-85
2022/05/18 01:49:46;;;;;;;2.60;1.00;;;16.90;82.60;;;;;;5090525;28;20375;-84
2022/05/18 01:52:14;;;;;;;2.40;0.90;;;17.00;79.90;;;;;;5090592;28;20368;-84
2022/05/18 01:54:44;;;;;;;3.55;1.10;;;16.90;80.90;;;;;;5090871;28;20369;-84
2022/05/18 01:57:12;;;;;;;2.47;1.10;;;16.90;80.20;;;;;;5090461;28;20825;-85
2022/05/18 01:59:39;;;;;;;2.03;1.00;;;17.00;81.40;;;;;;5090673;28;20724;-85
2022/05/18 02:02:10;;;;;;;2.15;0.85;;;17.20;80.30;;;;;;5090265;28;20396;-84
2022/05/18 02:04:38;;;;;;;2.43;1.10;;;17.20;78.30;;;;;;5089895;28;20372;-84
2022/05/18 02:07:05;;;;;;;2.20;0.90;;;17.20;79.50;;;;;;5088826;28;20410;-84
2022/05/18 02:09:32;;;;;;;3.90;1.10;;;17.20;80.50;;;;;;5090565;28;20364;-83
2022/05/18 02:11:59;;;;;;;3.75;0.85;;;17.40;80.50;;;;;;5090132;28;20458;-84
2022/05/18 02:14:26;;;;;;;5.40;1.00;;;17.60;80.20;;;;;;5090167;28;20430;-83
2022/05/18 02:16:54;;;;;;;3.83;0.95;;;17.70;79.60;;;;;;5089977;28;20365;-84
2022/05/18 02:19:21;;;;;;;2.90;1.00;;;17.70;79.10;;;;;;5089909;28;20866;-83
2022/05/18 02:21:49;;;;;;;3.00;1.00;;;17.70;77.90;;;;;;5089918;28;20412;-83
2022/05/18 02:24:17;;;;;;;2.05;0.95;;;17.90;80.20;;;;;;5090117;28;20387;-80
2022/05/18 02:26:44;;;;;;;4.15;1.05;;;17.90;79.50;;;;;;5090890;28;20372;-81
2022/05/18 02:29:11;;;;;;;3.28;1.13;;;17.90;79.50;;;;;;5090234;28;20372;-82
2022/05/18 02:31:39;;;;;;;2.63;0.80;;;18.00;78.30;;;;;;5089514;28;20461;-79
2022/05/18 02:34:06;;;;;;;3.47;0.90;;;18.20;77.40;;;;;;5090117;28;20376;-82
2022/05/18 02:36:34;;;;;;;2.83;0.90;;;18.10;76.50;;;;;;5090839;28;20380;-83
2022/05/18 02:39:01;;;;;;;2.28;0.80;;;18.20;77.20;;;;;;5089573;28;20726;-84
2022/05/18 02:41:28;;;;;;;3.45;0.77;;;18.30;75.50;;;;;;5090003;28;20426;-84
2022/05/18 02:43:55;;;;;;;3.28;0.90;;;18.30;74.00;;;;;;5088556;28;20898;-84
2022/05/18 02:46:23;;;;;;;3.83;0.80;;;18.20;72.00;;;;;;5089530;28;20418;-84
2022/05/18 02:48:53;;;;;;;4.55;0.90;;;18.20;75.40;;;;;;5090539;28;20417;-84
2022/05/18 02:51:22;;;;;;;1.83;0.88;;;18.10;73.80;;;;;;5090339;28;20423;-84
2022/05/18 02:53:49;;;;;;;2.63;1.00;;;18.10;74.90;;;;;;5089460;28;20461;-85
2022/05/18 02:56:23;;;;;;;2.20;0.82;;;18.20;74.90;;;;;;5089506;28;20372;-85
2022/05/18 02:58:52;;;;;;;1.92;0.90;;;18.30;74.70;;;;;;5089257;28;20373;-83
2022/05/18 03:01:25;;;;;;;1.92;0.85;;;18.40;74.80;;;;;;5089351;28;20857;-83
2022/05/18 03:03:52;;;;;;;2.30;0.80;;;18.60;75.30;;;;;;5089207;28;20383;-84
2022/05/18 03:06:23;;;;;;;3.20;1.02;;;18.60;74.20;;;;;;5089196;28;20436;-85
2022/05/18 03:08:51;;;;;;;3.78;1.00;;;18.60;71.10;;;;;;5089615;28;20380;-84
2022/05/18 03:11:19;;;;;;;2.40;0.85;;;18.60;72.30;;;;;;5089411;28;20465;-85
2022/05/18 03:13:46;;;;;;;4.18;0.90;;;18.60;70.60;;;;;;5089077;28;20373;-83
2022/05/18 03:16:13;;;;;;;3.10;0.90;;;18.50;73.50;;;;;;5088471;28;20372;-83
2022/05/18 03:18:41;;;;;;;1.90;0.90;;;18.60;73.70;;;;;;5089761;28;20406;-83
2022/05/18 03:23:53;;;;;;;2.38;0.85;;;18.90;72.00;;;;;;5089606;28;20874;-84
2022/05/18 03:26:23;;;;;;;4.10;0.82;;;19.00;71.20;;;;;;5089801;28;20368;-85
2022/05/18 03:28:52;;;;;;;2.35;0.90;;;19.10;72.80;;;;;;5089334;28;20376;-84
2022/05/18 03:31:19;;;;;;;4.32;0.95;;;19.10;70.00;;;;;;5089287;28;20388;-80
2022/05/18 03:33:46;;;;;;;3.63;0.90;;;19.10;70.50;;;;;;5088838;28;20856;-82
2022/05/18 03:36:15;;;;;;;2.60;0.70;;;19.20;68.20;;;;;;5088875;28;20379;-82
2022/05/18 03:38:44;;;;;;;7.50;1.30;;;19.20;70.10;;;;;;5088453;28;20467;-82
2022/05/18 03:41:12;;;;;;;3.25;1.00;;;19.20;66.90;;;;;;5088681;28;20383;-82
2022/05/18 03:43:41;;;;;;;1.77;0.73;;;19.80;66.70;;;;;;5089362;28;20404;-82
2022/05/18 03:46:09;;;;;;;1.95;0.75;;;20.40;66.10;;;;;;5089025;28;20368;-82
2022/05/18 03:48:37;;;;;;;1.40;0.60;;;20.30;66.30;;;;;;5089728;28;20922;-82
2022/05/18 03:51:06;;;;;;;1.60;0.63;;;20.00;66.10;;;;;;5088641;28;20455;-82
2022/05/18 03:53:33;;;;;;;2.03;0.65;;;19.80;63.80;;;;;;5088492;28;20365;-82
2022/05/18 03:56:01;;;;;;;1.92;0.63;;;19.60;66.60;;;;;;5088837;28;20789;-82
2022/05/18 03:58:28;;;;;;;1.88;0.73;;;19.50;65.80;;;;;;5088443;28;20368;-82
2022/05/18 04:01:00;;;;;;;2.10;0.80;;;19.40;65.10;;;;;;5088467;28;20372;-82
2022/05/18 04:03:29;;;;;;;1.42;0.80;;;19.20;68.00;;;;;;5088367;28;20479;-82
2022/05/18 04:05:57;;;;;;;2.03;0.75;;;19.30;67.70;;;;;;5088391;28;20365;-82
2022/05/18 04:08:23;;;;;;;2.85;0.70;;;19.20;67.40;;;;;;5088660;28;20399;-82
2022/05/18 04:10:50;;;;;;;2.22;0.80;;;19.30;69.40;;;;;;5088460;28;20380;-82
2022/05/18 04:13:26;;;;;;;2.77;0.70;;;19.40;67.50;;;;;;5088362;28;20380;-82
2022/05/18 04:15:54;;;;;;;4.28;0.90;;;19.60;65.40;;;;;;5088951;28;20713;-82
2022/05/18 04:18:22;;;;;;;3.15;0.80;;;19.50;66.80;;;;;;5088186;28;20749;-82
2022/05/18 04:20:51;;;;;;;3.10;0.80;;;19.60;66.10;;;;;;5088368;28;20447;-82
2022/05/18 04:23:18;;;;;;;1.92;0.50;;;19.60;66.40;;;;;;5088087;28;20400;-82
2022/05/18 04:25:45;;;;;;;1.45;0.50;;;19.60;66.10;;;;;;5088174;28;20421;-82
2022/05/18 04:28:14;;;;;;;1.25;0.52;;;19.60;64.60;;;;;;5090080;28;20860;-82
2022/05/18 04:30:43;;;;;;;0.75;0.43;;;19.40;64.20;;;;;;5091894;28;20380;-82
2022/05/18 04:33:12;;;;;;;2.78;0.50;;;19.20;64.00;;;;;;5091892;28;20448;-82
2022/05/18 04:35:40;;;;;;;0.77;0.38;;;19.10;65.00;;;;;;5092016;28;20474;-83
2022/05/18 04:38:07;;;;;;;1.70;0.40;;;19.00;65.10;;;;;;5092036;28;20368;-82
2022/05/18 04:40:34;;;;;;;1.38;0.60;;;18.90;66.20;;;;;;5091924;28;20433;-82
2022/05/18 04:43:01;;;;;;;3.00;0.70;;;18.90;65.90;;;;;;5091836;28;20428;-82
2022/05/18 04:45:28;;;;;;;1.60;0.50;;;19.00;66.90;;;;;;5091811;28;20451;-82
2022/05/18 04:47:55;;;;;;;1.60;0.50;;;19.20;66.20;;;;;;5091796;28;20376;-82
2022/05/18 04:50:23;;;;;;;1.07;0.50;;;19.70;65.50;;;;;;5091625;28;20392;-82
2022/05/18 04:52:50;;;;;;;4.90;1.02;;;19.80;63.10;;;;;;5091675;28;20376;-83
2022/05/18 04:55:17;;;;;;;8.63;1.63;;;19.90;63.40;;;;;;5091489;28;20408;-82
2022/05/18 04:57:44;;;;;;;5.78;1.40;;;20.10;64.60;;;;;;5091621;28;20369;-82
2022/05/18 05:00:14;;;;;;;4.22;1.13;;;19.60;65.00;;;;;;5091335;28;20373;-82
2022/05/18 05:02:41;;;;;;;3.63;1.00;;;19.10;66.40;;;;;;5091344;28;20491;-82
2022/05/18 05:05:10;;;;;;;3.80;1.00;;;18.80;68.20;;;;;;5091407;28;20369;-84
2022/05/18 05:07:37;;;;;;;6.13;1.02;;;18.60;69.10;;;;;;5091790;28;20373;-83
2022/05/18 05:10:07;;;;;;;3.00;0.73;;;18.60;68.80;;;;;;5091310;28;20365;-83
2022/05/18 05:12:34;;;;;;;6.22;1.00;;;18.60;68.10;;;;;;5091288;28;20387;-84
2022/05/18 05:15:02;;;;;;;5.47;0.70;;;18.60;68.80;;;;;;5091022;28;20382;-83
2022/05/18 05:17:29;;;;;;;4.15;0.70;;;18.60;67.80;;;;;;5091145;28;20381;-84
2022/05/18 05:19:57;;;;;;;4.97;1.00;;;18.50;67.80;;;;;;5091090;28;20421;-83
2022/05/18 05:22:24;;;;;;;3.38;1.10;;;18.50;69.60;;;;;;5090966;28;20759;-83
2022/05/18 05:24:51;;;;;;;4.53;0.93;;;18.60;69.10;;;;;;5090971;28;20426;-84
2022/05/18 05:27:18;;;;;;;2.13;0.70;;;18.70;68.90;;;;;;5090882;28;20383;-85
2022/05/18 05:29:45;;;;;;;1.83;0.55;;;19.00;67.60;;;;;;5090771;28;20395;-82
2022/05/18 05:32:12;;;;;;;1.38;0.60;;;19.00;67.40;;;;;;5091165;28;20380;-84
2022/05/18 05:34:40;;;;;;;1.75;0.52;;;18.80;67.00;;;;;;5090972;28;20372;-83
2022/05/18 05:37:10;;;;;;;1.75;0.50;;;18.60;67.70;;;;;;5090711;28;20433;-83
2022/05/18 05:39:37;;;;;;;1.60;0.60;;;18.50;67.10;;;;;;5090006;28;20404;-83
2022/05/18 05:42:05;;;;;;;2.50;0.60;;;18.30;68.40;;;;;;5090714;28;20384;-83
2022/05/18 05:44:32;;;;;;;2.80;0.60;;;18.20;67.30;;;;;;5090737;28;20903;-83
2022/05/18 05:47:03;;;;;;;1.55;0.50;;;18.20;68.10;;;;;;5090680;28;20372;-83
2022/05/18 05:49:30;;;;;;;1.73;0.50;;;18.20;68.30;;;;;;5090487;28;20376;-84
2022/05/18 05:51:57;;;;;;;2.23;0.50;;;18.10;67.70;;;;;;5090476;28;20368;-83
2022/05/18 05:54:26;;;;;;;2.00;0.53;;;18.00;68.50;;;;;;5090505;28;20461;-83
2022/05/18 05:56:53;;;;;;;2.70;0.55;;;18.00;69.20;;;;;;5090419;28;20502;-83
2022/05/18 05:59:21;;;;;;;1.92;0.60;;;18.00;69.50;;;;;;5090391;28;20380;-83
2022/05/18 06:01:49;;;;;;;2.70;0.50;;;18.10;68.60;;;;;;5090445;28;20392;-82
2022/05/18 06:04:17;;;;;;;2.17;0.50;;;18.20;67.50;;;;;;5090338;28;20404;-83
2022/05/18 06:06:44;;;;;;;1.45;0.50;;;18.20;66.60;;;;;;5090254;28;20368;-83
2022/05/18 06:09:11;;;;;;;2.05;0.50;;;18.30;66.80;;;;;;5090254;28;20827;-84
2022/05/18 06:11:38;;;;;;;1.40;0.60;;;18.20;67.40;;;;;;5090023;28;20823;-82
2022/05/18 06:14:05;;;;;;;2.70;0.63;;;18.10;67.20;;;;;;5090127;28;20369;-80
2022/05/18 06:16:33;;;;;;;2.03;0.65;;;18.10;67.30;;;;;;5090458;28;20388;-77
2022/05/18 06:19:01;;;;;;;2.75;0.47;;;18.00;68.80;;;;;;5090259;28;20372;-80
2022/05/18 06:21:28;;;;;;;1.90;0.60;;;18.00;68.70;;;;;;5089755;28;20380;-81
2022/05/18 06:23:55;;;;;;;3.03;0.60;;;17.90;68.20;;;;;;5089949;28;20381;-81
2022/05/18 06:26:24;;;;;;;0.65;0.40;;;17.80;68.20;;;;;;5089730;28;20374;-81
2022/05/18 06:28:51;;;;;;;1.40;0.53;;;17.70;67.30;;;;;;5089809;28;20375;-80
2022/05/18 06:31:18;;;;;;;2.17;0.60;;;17.70;67.60;;;;;;5089354;28;20407;-88
2022/05/18 06:33:45;;;;;;;1.70;0.50;;;17.50;67.90;;;;;;5088784;28;20756;-82
2022/05/18 06:36:12;;;;;;;2.88;0.90;;;17.50;68.60;;;;;;5089700;28;20397;-83
2022/05/18 06:38:39;;;;;;;6.95;0.63;;;17.30;68.90;;;;;;5090466;28;20430;-81
2022/05/18 06:41:21;;;;;;;1.67;0.50;;;17.30;68.20;;;;;;5090673;28;20369;-86
2022/05/18 06:43:57;;;;;;;2.60;0.65;;;17.30;68.60;;;;;;5088955;28;20921;-86
2022/05/18 06:46:25;;;;;;;2.93;0.67;;;17.30;68.40;;;;;;5090134;28;20414;-82
2022/05/18 06:48:55;;;;;;;8.03;1.80;;;17.30;68.30;;;;;;5089888;28;20439;-83
2022/05/18 06:51:26;;;;;;;3.05;1.00;;;17.10;69.10;;;;;;5089129;28;20376;-83
2022/05/18 06:53:55;;;;;;;3.13;1.27;;;17.10;69.30;;;;;;5090184;28;20369;-83
2022/05/18 06:56:25;;;;;;;3.88;1.45;;;16.90;70.20;;;;;;5089693;28;20368;-83
2022/05/18 06:58:53;;;;;;;1.85;0.80;;;16.70;70.60;;;;;;5089661;28;20377;-83
2022/05/18 07:01:21;;;;;;;2.95;0.90;;;16.60;71.40;;;;;;5089575;28;20430;-82
2022/05/18 07:03:48;;;;;;;2.25;1.13;;;16.40;70.70;;;;;;5089803;28;20411;-83
2022/05/18 07:06:18;;;;;;;2.40;1.43;;;16.30;71.20;;;;;;5091411;28;20787;-84
2022/05/18 07:08:46;;;;;;;1.88;1.25;;;16.20;71.50;;;;;;5089671;28;20411;-83
2022/05/18 07:11:13;;;;;;;2.88;0.90;;;16.10;72.30;;;;;;5088940;28;20388;-84
2022/05/18 07:13:40;;;;;;;3.10;0.90;;;16.00;72.80;;;;;;5089348;28;20376;-84
2022/05/18 07:16:07;;;;;;;2.10;1.27;;;15.80;73.70;;;;;;5089193;28;20871;-84
2022/05/18 07:18:35;;;;;;;2.50;0.98;;;15.70;74.10;;;;;;5089036;28;20403;-84
2022/05/18 07:21:05;;;;;;;2.70;1.23;;;15.50;75.70;;;;;;5088994;28;20442;-84
2022/05/18 07:23:33;;;;;;;5.05;1.90;;;15.40;76.40;;;;;;5089343;28;20806;-85
2022/05/18 07:26:00;;;;;;;5.13;3.40;;;15.30;77.90;;;;;;5089213;28;20452;-86
2022/05/18 07:28:27;;;;;;;3.20;2.55;;;15.20;78.50;;;;;;5089150;28;20429;-86
2022/05/18 07:30:55;;;;;;;5.55;2.75;;;15.20;78.90;;;;;;5087327;28;20904;-84
2022/05/18 07:33:24;;;;;;;1.85;1.10;;;15.00;80.70;;;;;;5088952;28;20380;-84
2022/05/18 07:35:53;;;;;;;2.85;0.85;;;15.00;79.10;;;;;;5088781;28;20469;-83
2022/05/18 07:38:24;;;;;;;3.25;1.38;;;15.30;76.70;;;;;;5088644;28;20471;-84
2022/05/18 07:40:51;;;;;;;1.95;1.15;;;15.50;75.90;;;;;;5088743;28;20368;-83
2022/05/18 07:43:19;;;;;;;2.53;1.00;;;15.60;77.20;;;;;;5088549;28;20400;-84
2022/05/18 07:45:52;;;;;;;3.42;2.08;;;15.60;76.70;;;;;;5088120;28;20384;-83
2022/05/18 07:48:20;;;;;;;2.50;1.60;;;15.60;75.50;;;;;;5088830;28;20804;-82
2022/05/18 07:50:47;;;;;;;4.72;2.60;;;15.70;75.10;;;;;;5088621;28;20366;-85
2022/05/18 07:53:15;;;;;;;1.65;1.00;;;15.70;75.20;;;;;;5089626;28;20376;-86
2022/05/18 07:55:42;;;;;;;4.60;1.10;;;15.60;73.70;;;;;;5088580;28;20387;-85
2022/05/18 07:58:11;;;;;;;3.58;1.50;;;15.60;74.40;;;;;;5088477;28;20373;-84
2022/05/18 08:00:39;;;;;;;21.05;15.85;;;15.60;74.40;;;;;;5088518;28;20379;-82
2022/05/18 08:03:09;;;;;;;2.37;1.40;;;15.60;74.00;;;;;;5090049;28;20422;-83
2022/05/18 08:05:37;;;;;;;5.30;3.23;;;15.60;73.60;;;;;;5092694;28;20371;-82
2022/05/18 08:08:06;;;;;;;3.45;1.92;;;15.60;73.70;;;;;;5093685;28;20784;-81
2022/05/18 08:16:04;;;;;;;56.83;44.55;;;15.50;75.50;;;;;;5092658;28;20430;-82
2022/05/18 08:18:33;;;;;;;4.05;1.48;;;15.50;77.00;;;;;;5093662;28;20437;-83
2022/05/18 08:21:00;;;;;;;5.40;2.58;;;15.50;78.40;;;;;;5094035;28;20376;-83
2022/05/18 08:23:27;;;;;;;9.07;5.25;;;15.40;78.70;;;;;;5092418;28;20400;-82
2022/05/18 08:25:58;;;;;;;15.02;8.80;;;15.40;80.00;;;;;;5092236;28;20429;-84
2022/05/18 08:28:26;;;;;;;15.13;7.35;;;15.30;81.20;;;;;;5092627;28;20372;-83
2022/05/18 08:30:55;;;;;;;31.60;21.67;;;15.20;81.40;;;;;;5092782;28;20433;-84
2022/05/18 08:33:23;;;;;;;29.95;19.42;;;15.10;81.70;;;;;;5092397;28;20385;-83
2022/05/18 08:35:50;;;;;;;10.30;5.55;;;15.10;83.20;;;;;;5090745;28;20755;-83
2022/05/18 08:38:22;;;;;;;5.53;3.47;;;15.00;83.50;;;;;;5091857;28;20380;-84
2022/05/18 08:41:11;;;;;;;10.43;6.67;;;14.90;84.40;;;;;;5091980;28;20360;-83
2022/05/18 08:43:51;;;;;;;8.25;3.78;;;14.90;87.70;;;;;;5090302;28;20392;-84
2022/05/18 08:46:39;;;;;;;9.32;3.05;;;14.90;88.60;;;;;;5091772;28;20361;-84
2022/05/18 08:49:24;;;;;;;6.97;3.50;;;14.90;89.10;;;;;;5091984;28;20400;-84
2022/05/18 08:52:14;;;;;;;6.70;2.67;;;14.80;89.20;;;;;;5092017;28;20393;-84
2022/05/18 08:54:58;;;;;;;11.85;2.90;;;14.70;90.80;;;;;;5091895;28;20364;-85
2022/05/18 08:57:36;;;;;;;5.72;2.90;;;14.70;90.90;;;;;;5092325;28;20373;-87
2022/05/18 09:00:14;;;;;;;9.13;3.60;;;14.50;92.50;;;;;;5092022;28;20454;-86
2022/05/18 09:02:43;;;;;;;7.55;4.30;;;14.40;92.50;;;;;;5092574;28;20395;-84
2022/05/18 09:05:50;;;;;;;7.88;2.90;;;14.40;90.90;;;;;;5092202;28;20369;-89
2022/05/18 09:08:25;;;;;;;11.77;2.90;;;14.50;90.60;;;;;;5092089;28;20387;-84
2022/05/18 09:11:13;;;;;;;8.05;2.85;;;14.50;90.50;;;;;;5090218;28;20725;-84
2022/05/18 09:13:40;;;;;;;8.88;2.95;;;14.30;91.70;;;;;;5090657;28;20399;-83
2022/05/18 09:16:37;;;;;;;9.20;2.78;;;14.20;92.30;;;;;;5091128;28;20373;-83
2022/05/18 09:19:35;;;;;;;11.30;4.75;;;14.10;92.00;;;;;;5093415;28;20365;-84
2022/05/18 09:22:29;;;;;;;6.63;3.50;;;13.90;92.40;;;;;;5094289;28;20384;-82
2022/05/18 09:25:20;;;;;;;8.52;3.67;;;13.80;94.30;;;;;;5091857;28;20369;-83
2022/05/18 09:28:30;;;;;;;6.47;2.88;;;13.60;95.20;;;;;;5094540;28;20388;-84
2022/05/18 09:31:36;;;;;;;7.78;3.10;;;13.80;94.10;;;;;;5092943;28;20392;-84
2022/05/18 09:34:29;;;;;;;9.35;3.58;;;13.70;94.50;;;;;;5091192;28;20431;-88
2022/05/18 09:37:08;;;;;;;3.70;1.80;;;13.50;95.10;;;;;;5091409;28;20698;-84
2022/05/18 09:39:43;;;;;;;5.38;1.50;;;13.40;94.70;;;;;;5092166;28;20738;-85
2022/05/18 09:42:15;;;;;;;3.85;1.25;;;13.30;94.80;;;;;;5096519;28;20430;-91
2022/05/18 09:45:25;;;;;;;3.97;1.00;;;13.60;93.90;;;;;;5090863;28;20855;-85
2022/05/18 09:48:03;;;;;;;3.17;0.80;;;13.70;93.60;;;;;;5093208;28;20439;-90
2022/05/18 09:50:32;;;;;;;2.43;0.60;;;13.90;92.90;;;;;;5096536;28;20490;-90
2022/05/18 09:52:59;;;;;;;2.70;1.20;;;13.90;93.00;;;;;;5093742;28;20917;-90
2022/05/18 09:55:27;;;;;;;2.15;1.10;;;13.80;93.30;;;;;;5090750;28;20386;-88
2022/05/18 09:57:58;;;;;;;3.85;1.00;;;13.70;93.90;;;;;;5090846;28;20383;-91
2022/05/18 10:00:31;;;;;;;2.83;0.98;;;13.60;94.50;;;;;;5092536;28;20380;-87
2022/05/18 10:08:53;;;;;;;3.83;0.70;;;13.70;94.40;;;;;;5090996;28;20882;-87
2022/05/18 10:11:23;;;;;;;3.00;0.80;;;13.70;94.60;;;;;;5091058;28;20377;-89
2022/05/18 10:14:12;;;;;;;1.02;0.60;;;13.60;94.50;;;;;;5091523;28;20375;-85
2022/05/18 10:16:48;;;;;;;2.20;0.70;;;13.70;93.40;;;;;;5091148;28;20369;-87
2022/05/18 10:19:24;;;;;;;2.30;0.70;;;13.80;93.70;;;;;;5091363;28;20379;-88
2022/05/18 10:22:01;;;;;;;1.33;0.80;;;13.70;93.70;;;;;;5092674;28;20365;-88
2022/05/18 10:24:47;;;;;;;2.70;0.73;;;13.60;93.80;;;;;;5094170;28;20407;-86
2022/05/18 10:27:24;;;;;;;3.22;0.85;;;13.50;94.10;;;;;;5099573;28;20357;-86
2022/05/18 10:30:04;;;;;;;7.93;2.00;;;13.40;94.20;;;;;;5097625;28;20524;-86
2022/05/18 10:32:32;;;;;;;8.98;2.30;;;13.30;94.60;;;;;;5092970;28;20369;-84
2022/05/18 10:35:01;;;;;;;7.07;1.80;;;13.30;94.70;;;;;;5091488;28;20376;-88
2022/05/18 10:37:39;;;;;;;8.73;1.85;;;13.20;95.20;;;;;;5090998;28;20384;-85
2022/05/18 10:40:11;;;;;;;3.72;1.80;;;13.10;94.80;;;;;;5090513;28;20870;-86
2022/05/18 10:42:46;;;;;;;4.10;1.30;;;13.10;94.80;;;;;;5090298;28;20406;-88
2022/05/18 10:45:31;;;;;;;8.23;1.85;;;13.10;95.00;;;;;;5089818;28;20368;-84
2022/05/18 10:48:05;;;;;;;3.70;1.10;;;12.90;95.10;;;;;;5090572;28;20877;-86
2022/05/18 10:50:36;;;;;;;1.83;0.70;;;12.90;94.60;;;;;;5089897;28;20374;-85
2022/05/18 10:53:28;;;;;;;1.42;0.70;;;13.00;94.70;;;;;;5089830;28;20380;-85
2022/05/18 10:55:57;;;;;;;1.58;0.60;;;12.80;94.80;;;;;;5090679;28;20750;-85
2022/05/18 10:58:26;;;;;;;1.37;0.70;;;12.80;94.80;;;;;;5089605;28;20376;-85
2022/05/18 11:01:05;;;;;;;4.47;0.80;;;12.80;94.60;;;;;;5089735;28;20377;-85
2022/05/18 11:04:19;;;;;;;2.20;1.50;;;12.80;94.30;;;;;;5089492;28;20879;-86
2022/05/18 11:06:46;;;;;;;2.42;1.50;;;12.90;94.00;;;;;;5088161;28;20381;-86
2022/05/18 11:09:20;;;;;;;2.55;0.70;;;12.90;94.40;;;;;;5088305;28;20864;-85
2022/05/18 11:12:02;;;;;;;2.05;0.60;;;12.90;94.10;;;;;;5089507;28;20451;-85
2022/05/18 11:14:32;;;;;;;2.00;0.90;;;12.90;94.20;;;;;;5089992;28;20377;-86
2022/05/18 11:17:13;;;;;;;2.50;0.70;;;12.80;94.20;;;;;;5089981;28;20365;-84
2022/05/18 11:20:01;;;;;;;1.85;0.60;;;12.80;94.50;;;;;;5089390;28;20896;-84
2022/05/18 11:22:55;;;;;;;1.40;0.70;;;12.70;94.80;;;;;;5089123;28;20419;-84
2022/05/18 11:26:01;;;;;;;2.75;0.90;;;12.70;94.70;;;;;;5088742;28;20460;-85
2022/05/18 11:28:38;;;;;;;6.43;0.90;;;12.50;95.20;;;;;;5088980;28;20784;-87
2022/05/18 11:31:32;;;;;;;5.95;1.70;;;12.30;95.60;;;;;;5088985;28;20403;-87
2022/05/18 11:34:10;;;;;;;8.55;1.38;;;12.10;96.40;;;;;;5089313;28;20380;-88
2022/05/18 11:36:55;;;;;;;5.50;1.70;;;12.10;97.00;;;;;;5087839;28;20705;-83
2022/05/18 11:40:04;;;;;;;6.60;1.53;;;12.10;96.90;;;;;;5089283;28;20400;-89
2022/05/18 11:43:25;;;;;;;4.95;1.30;;;12.10;97.00;;;;;;5089120;28;20387;-85
2022/05/18 11:46:20;;;;;;;5.80;2.10;;;12.00;97.50;;;;;;5088973;28;20732;-86
2022/05/18 11:49:30;;;;;;;6.20;1.70;;;11.90;97.60;;;;;;5089518;28;20375;-88
2022/05/18 11:52:21;;;;;;;3.93;1.30;;;11.90;99.30;;;;;;5089886;28;20365;-84
2022/05/18 11:55:25;;;;;;;2.33;1.20;;;11.70;99.50;;;;;;5091017;28;20428;-89
2022/05/18 11:58:01;;;;;;;1.90;1.30;;;11.60;99.90;;;;;;5033002;28;20471;-85
2022/05/18 12:01:08;;;;;;;5.07;2.90;;;11.40;99.90;;;;;;5049650;28;20380;-87
2022/05/18 12:04:12;;;;;;;7.60;6.75;;;11.30;99.90;;;;;;5048400;28;20911;-83
2022/05/18 12:07:03;;;;;;;4.60;1.92;;;11.10;99.90;;;;;;5050780;28;20384;-84
2022/05/18 12:09:56;;;;;;;4.13;2.13;;;11.00;99.90;;;;;;5047076;28;20368;-88
2022/05/18 12:12:40;;;;;;;5.20;1.70;;;10.90;99.90;;;;;;5041509;28;20375;-85
2022/05/18 12:15:19;;;;;;;3.83;1.30;;;10.90;99.90;;;;;;5046706;28;20421;-87
2022/05/18 12:18:06;;;;;;;2.45;1.30;;;10.90;99.90;;;;;;5047624;28;20429;-88
2022/05/18 12:20:46;;;;;;;2.30;1.20;;;10.90;99.90;;;;;;5047779;28;20380;-88
2022/05/18 12:23:17;;;;;;;2.40;0.90;;;10.80;99.90;;;;;;5048975;28;20400;-86
2022/05/18 12:25:45;;;;;;;2.85;0.90;;;10.90;99.90;;;;;;5048957;28;20473;-87
2022/05/18 12:28:14;;;;;;;2.90;1.30;;;10.90;99.90;;;;;;5052595;28;20451;-86
2022/05/18 12:30:43;;;;;;;2.50;0.90;;;10.90;99.90;;;;;;5052202;28;20453;-86
2022/05/18 12:33:12;;;;;;;3.30;1.10;;;10.90;99.90;;;;;;5046872;28;20412;-87
2022/05/18 12:35:48;;;;;;;2.60;1.35;;;10.90;99.90;;;;;;5088571;28;20905;-90
2022/05/18 12:38:53;;;;;;;2.60;2.05;;;11.00;99.90;;;;;;5088929;28;20364;-88
2022/05/18 12:41:26;;;;;;;3.65;1.60;;;11.00;99.90;;;;;;5091247;28;20908;-91
2022/05/18 12:44:12;;;;;;;2.38;1.55;;;11.00;99.90;;;;;;5091014;28;20400;-90
2022/05/18 12:46:51;;;;;;;5.40;2.38;;;11.00;99.90;;;;;;5090991;28;20364;-90
2022/05/18 12:49:41;;;;;;;2.70;1.50;;;11.20;99.90;;;;;;5093613;28;20364;-90
2022/05/18 12:52:40;;;;;;;3.15;1.25;;;11.20;99.90;;;;;;5094432;28;20360;-88
2022/05/18 12:55:31;;;;;;;2.83;1.40;;;11.40;99.80;;;;;;5091347;28;20398;-85
2022/05/18 12:58:11;;;;;;;4.50;1.65;;;11.50;98.90;;;;;;5091079;28;20380;-85
2022/05/18 13:00:52;;;;;;;3.63;1.13;;;11.50;98.70;;;;;;5093041;28;20392;-88
2022/05/18 13:03:21;;;;;;;2.47;0.90;;;11.50;98.70;;;;;;5091745;28;20961;-90
2022/05/18 13:05:53;;;;;;;2.43;0.90;;;11.50;98.70;;;;;;5091997;28;20404;-89
2022/05/18 13:08:20;;;;;;;1.52;0.70;;;11.50;98.40;;;;;;5092454;28;20407;-86
2022/05/18 13:11:22;;;;;;;4.55;1.15;;;11.50;98.20;;;;;;5092019;28;20394;-87
2022/05/18 13:14:18;;;;;;;1.13;0.90;;;11.30;98.60;;;;;;5049484;28;20391;-86
2022/05/18 13:16:48;;;;;;;3.03;1.10;;;11.20;98.90;;;;;;5050090;28;20400;-85
2022/05/18 13:19:18;;;;;;;2.17;1.03;;;11.20;99.30;;;;;;5033244;28;20875;-87
2022/05/18 13:21:52;;;;;;;2.15;1.10;;;11.10;99.90;;;;;;5049299;28;20380;-91
2022/05/18 13:24:50;;;;;;;2.22;1.50;;;10.90;99.90;;;;;;5049416;28;20387;-85
2022/05/18 13:27:41;;;;;;;5.32;1.60;;;10.80;99.90;;;;;;5009918;28;20405;-86
2022/05/18 13:30:26;;;;;;;2.95;1.35;;;10.60;99.90;;;;;;4999184;28;20452;-85
2022/05/18 13:32:53;;;;;;;3.10;1.60;;;10.40;99.90;;;;;;5009487;28;20409;-91